Time;durP1;ratioP1;P1;durP2;ratioP2;P2;SDS_P1;SDS_P2;PMS_P1;PMS_P2;Temp;Humidity;BMP_temperature;BMP_pressure;BME280_temperature;BME280_humidity;BME280_pressure;Samples;Min_cycle;Max_cycle;Signal;HPM_P1;HPM_P2
2023/04/18 00:02:54;;;;;;;19.35;11.40;;;;;;;10.43;44.46;100146.22;7342437;19;20090;-64
2023/04/18 00:05:20;;;;;;;24.70;12.93;;;;;;;10.46;44.42;100147.84;7339205;19;20036;-62
2023/04/18 00:07:45;;;;;;;28.38;12.57;;;;;;;10.44;44.91;100137.28;7339156;19;20014;-64
2023/04/18 00:10:10;;;;;;;36.05;12.93;;;;;;;10.51;45.01;100149.25;7338144;19;20022;-64
2023/04/18 00:12:35;;;;;;;37.10;13.13;;;;;;;10.53;45.15;100144.69;7347468;19;20010;-64
2023/04/18 00:15:01;;;;;;;43.92;14.93;;;;;;;10.57;45.58;100144.50;7341811;19;20349;-63
2023/04/18 00:17:31;;;;;;;32.53;14.32;;;;;;;10.59;45.82;100142.59;7341400;19;20031;-64
2023/04/18 00:19:57;;;;;;;27.88;12.88;;;;;;;10.59;45.29;100142.59;7338051;19;20010;-63
2023/04/18 00:22:22;;;;;;;31.42;12.65;;;;;;;10.58;45.30;100136.41;7340579;19;20011;-63
2023/04/18 00:24:51;;;;;;;29.05;12.32;;;;;;;10.62;45.43;100145.06;7341198;19;20457;-64
2023/04/18 00:27:17;;;;;;;34.83;13.00;;;;;;;10.60;45.93;100142.50;7339904;19;20010;-63
2023/04/18 00:29:42;;;;;;;29.02;13.18;;;;;;;10.61;45.97;100138.03;7347283;19;20349;-62
2023/04/18 00:32:07;;;;;;;28.23;12.18;;;;;;;10.61;46.04;100140.69;7347214;19;20355;-64
2023/04/18 00:34:31;;;;;;;39.45;12.80;;;;;;;10.61;46.08;100143.38;7345195;19;20027;-63
2023/04/18 00:36:56;;;;;;;29.98;13.63;;;;;;;10.64;46.10;100146.69;7343375;19;20346;-64
2023/04/18 00:39:20;;;;;;;35.35;14.27;;;;;;;10.64;46.11;100141.34;7347086;19;20039;-63
2023/04/18 00:41:45;;;;;;;29.88;12.95;;;;;;;10.66;46.16;100139.44;7349911;19;20481;-63
2023/04/18 00:44:10;;;;;;;34.88;13.63;;;;;;;10.67;46.45;100146.50;7345168;19;20010;-64
2023/04/18 00:46:34;;;;;;;32.83;13.05;;;;;;;10.66;46.04;100138.59;7349435;19;20136;-64
2023/04/18 00:48:59;;;;;;;33.67;13.88;;;;;;;10.65;46.27;100140.38;7349495;19;20457;-63
2023/04/18 00:51:24;;;;;;;30.98;14.35;;;;;;;10.66;46.29;100135.91;7352781;19;20021;-63
2023/04/18 00:53:50;;;;;;;26.63;12.55;;;;;;;10.65;46.34;100134.19;7348604;19;20023;-64
2023/04/18 00:56:15;;;;;;;24.35;11.98;;;;;;;10.69;46.20;100135.72;7343890;19;20372;-65
2023/04/18 00:58:39;;;;;;;29.45;12.93;;;;;;;10.69;45.97;100136.59;7346498;19;20389;-64
2023/04/18 01:01:04;;;;;;;35.00;14.23;;;;;;;10.69;46.16;100133.06;7344293;19;20015;-63
2023/04/18 01:03:29;;;;;;;24.88;13.57;;;;;;;10.71;46.01;100132.00;7347778;19;20025;-65
2023/04/18 01:05:54;;;;;;;32.83;12.15;;;;;;;10.71;46.06;100136.50;7346076;19;20358;-65
2023/04/18 01:08:20;;;;;;;35.33;13.98;;;;;;;10.72;45.95;100140.88;7344263;19;20029;-64
2023/04/18 01:10:45;;;;;;;26.95;11.20;;;;;;;10.69;46.12;100125.06;7341660;19;20022;-65
2023/04/18 01:13:20;;;;;;;30.30;13.15;;;;;;;10.71;46.00;100136.50;7348202;19;20679;-64
2023/04/18 01:15:49;;;;;;;31.50;13.13;;;;;;;10.68;46.55;100128.69;7346022;19;20041;-64
2023/04/18 01:18:16;;;;;;;33.15;12.43;;;;;;;10.64;46.57;100132.47;7349273;19;20041;-65
2023/04/18 01:20:45;;;;;;;28.75;11.57;;;;;;;10.66;46.90;100125.25;7344915;19;20018;-64
2023/04/18 01:23:10;;;;;;;28.92;12.85;;;;;;;10.63;47.48;100131.63;7349694;19;19999;-64
2023/04/18 01:25:35;;;;;;;30.80;12.77;;;;;;;10.64;47.05;100128.00;7343027;19;20047;-63
2023/04/18 01:28:00;;;;;;;29.70;12.70;;;;;;;10.63;46.93;100126.28;7342002;19;20522;-64
2023/04/18 01:30:25;;;;;;;24.33;11.38;;;;;;;10.65;46.98;100128.88;7341948;19;20052;-65
2023/04/18 01:32:50;;;;;;;30.17;12.43;;;;;;;10.65;47.43;100128.88;7342523;19;20006;-63
2023/04/18 01:35:16;;;;;;;24.88;12.38;;;;;;;10.65;47.43;100131.53;7342744;19;20116;-64
2023/04/18 01:37:41;;;;;;;26.95;12.85;;;;;;;10.65;47.35;100127.06;7346348;19;20027;-64
2023/04/18 01:40:06;;;;;;;26.63;13.38;;;;;;;10.65;47.43;100131.53;7345772;19;20014;-65
2023/04/18 01:42:31;;;;;;;25.20;13.20;;;;;;;10.65;47.69;100132.38;7341425;19;20011;-65
2023/04/18 01:44:56;;;;;;;30.10;13.90;;;;;;;10.66;47.76;100130.59;7341084;19;20021;-64
2023/04/18 01:47:20;;;;;;;23.00;11.20;;;;;;;10.66;48.13;100130.59;7341502;19;20010;-63
2023/04/18 01:49:47;;;;;;;28.08;12.63;;;;;;;10.65;47.70;100128.88;7343467;19;20022;-63
2023/04/18 01:52:13;;;;;;;21.48;11.88;;;;;;;10.64;47.78;100129.81;7340801;19;20007;-64
2023/04/18 01:54:37;;;;;;;24.02;11.13;;;;;;;10.63;47.75;100126.28;7342110;19;20389;-63
2023/04/18 01:57:02;;;;;;;23.08;12.18;;;;;;;10.61;48.08;100122.88;7340785;19;20363;-63
2023/04/18 01:59:27;;;;;;;24.70;11.32;;;;;;;10.61;48.23;100132.72;7342867;19;20015;-65
2023/04/18 02:01:52;;;;;;;22.17;12.25;;;;;;;10.60;47.97;100131.84;7342789;19;20018;-64
2023/04/18 02:04:16;;;;;;;26.65;10.75;;;;;;;10.60;48.13;100125.66;7345095;19;20045;-63
2023/04/18 02:06:43;;;;;;;23.58;11.88;;;;;;;10.58;48.17;100140.88;7343237;19;20010;-63
2023/04/18 02:09:08;;;;;;;20.73;10.93;;;;;;;10.58;48.37;100122.22;7342169;19;20091;-64
2023/04/18 02:11:33;;;;;;;34.80;11.98;;;;;;;10.56;48.56;100130.31;7343769;19;20022;-63
2023/04/18 02:14:00;;;;;;;24.48;11.13;;;;;;;10.52;48.64;100118.97;7346879;19;20045;-63
2023/04/18 02:16:25;;;;;;;31.42;12.93;;;;;;;10.52;48.66;100118.13;7342888;19;20006;-64
2023/04/18 02:18:51;;;;;;;23.80;12.32;;;;;;;10.51;48.88;100125.28;7342279;19;20027;-63
2023/04/18 02:21:15;;;;;;;25.58;11.95;;;;;;;10.54;48.79;100118.88;7341847;19;20461;-63
2023/04/18 02:23:40;;;;;;;33.85;14.70;;;;;;;10.53;48.72;100112.69;7347522;19;20557;-63
2023/04/18 02:26:05;;;;;;;31.02;11.75;;;;;;;10.52;49.35;100108.31;7342276;19;20327;-63
2023/04/18 02:28:30;;;;;;;24.52;11.48;;;;;;;10.50;48.62;100120.88;7341888;19;20066;-63
2023/04/18 02:30:54;;;;;;;27.25;12.45;;;;;;;10.41;48.78;100115.28;7343550;19;20007;-64
2023/04/18 02:33:19;;;;;;;23.80;10.98;;;;;;;10.37;49.24;100119.13;7343782;19;20802;-64
2023/04/18 02:35:44;;;;;;;20.52;11.07;;;;;;;10.34;49.23;100125.50;7341218;19;20383;-63
2023/04/18 02:38:09;;;;;;;25.33;10.95;;;;;;;10.36;49.54;100123.59;7345304;19;20015;-63
2023/04/18 02:40:39;;;;;;;33.08;13.55;;;;;;;10.40;49.97;100119.75;7342595;19;20006;-64
2023/04/18 02:43:04;;;;;;;24.67;11.98;;;;;;;10.35;49.76;100121.88;7341250;19;20111;-63
2023/04/18 02:45:28;;;;;;;28.33;11.82;;;;;;;10.36;49.93;100123.59;7341241;19;20010;-63
2023/04/18 02:47:56;;;;;;;28.70;11.68;;;;;;;10.41;50.18;100112.63;7341055;19;20021;-64
2023/04/18 02:50:20;;;;;;;31.55;12.40;;;;;;;10.41;50.29;100113.47;7341176;19;20078;-63
2023/04/18 02:52:45;;;;;;;24.98;12.30;;;;;;;10.41;50.14;100110.81;7342312;19;20014;-64
2023/04/18 02:55:10;;;;;;;27.83;11.68;;;;;;;10.44;50.25;100118.63;7344088;19;20014;-64
2023/04/18 02:57:38;;;;;;;20.20;10.63;;;;;;;10.43;50.08;100121.38;7340943;19;20011;-64
2023/04/18 03:00:35;;;;;;;28.52;11.52;;;;;;;10.41;49.71;100113.47;7339743;19;20018;-63
2023/04/18 03:03:23;;;;;;;30.10;11.55;;;;;;;10.40;49.81;100109.09;7341259;19;20026;-64
2023/04/18 03:05:56;;;;;;;27.77;11.80;;;;;;;10.38;49.82;100111.03;7338170;19;20035;-63
2023/04/18 03:08:21;;;;;;;30.85;12.93;;;;;;;10.46;49.93;100113.19;7338642;19;20272;-63
2023/04/18 03:10:47;;;;;;;27.45;11.95;;;;;;;10.47;50.11;100105.09;7339025;19;20018;-63
2023/04/18 03:13:15;;;;;;;31.05;12.57;;;;;;;10.52;50.08;100113.66;7337903;19;20039;-65
2023/04/18 03:15:40;;;;;;;28.88;11.70;;;;;;;10.58;49.89;100107.09;7337853;19;20021;-65
2023/04/18 03:18:05;;;;;;;30.15;11.52;;;;;;;10.64;49.85;100116.50;7337741;19;20360;-64
2023/04/18 03:20:33;;;;;;;33.83;10.77;;;;;;;10.69;49.83;100106.41;7342278;19;20015;-64
2023/04/18 03:22:58;;;;;;;23.50;11.90;;;;;;;10.80;49.58;100109.22;7338084;19;20091;-64
2023/04/18 03:25:24;;;;;;;29.38;14.18;;;;;;;10.89;49.43;100111.28;7338039;19;20023;-64
2023/04/18 03:27:51;;;;;;;20.02;11.13;;;;;;;10.95;48.91;100104.72;7337980;19;20010;-63
2023/04/18 03:30:18;;;;;;;22.95;9.93;;;;;;;11.03;48.91;100107.72;7337654;19;20027;-64
2023/04/18 03:32:49;;;;;;;28.45;12.35;;;;;;;11.09;48.63;100107.31;7338177;19;20006;-63
2023/04/18 03:35:14;;;;;;;23.83;11.60;;;;;;;11.13;48.73;100111.50;7338098;19;20113;-65
2023/04/18 03:37:39;;;;;;;31.95;12.07;;;;;;;11.17;49.04;100119.16;7341689;19;20018;-64
2023/04/18 03:40:06;;;;;;;25.27;13.13;;;;;;;11.23;48.90;100112.59;7340040;19;20364;-64
2023/04/18 03:42:30;;;;;;;32.42;12.73;;;;;;;11.33;49.01;100116.34;7340149;19;20034;-65
2023/04/18 03:44:55;;;;;;;27.17;11.40;;;;;;;11.41;48.97;100108.66;7344066;19;20018;-66
2023/04/18 03:47:20;;;;;;;23.05;12.30;;;;;;;11.51;48.88;100108.94;7342335;19;20002;-64
2023/04/18 03:49:49;;;;;;;35.85;11.65;;;;;;;11.60;48.78;100113.63;7340698;19;20026;-64
2023/04/18 03:52:15;;;;;;;26.77;12.23;;;;;;;11.67;49.50;100109.56;7340568;19;20014;-65
2023/04/18 03:54:41;;;;;;;30.83;13.38;;;;;;;11.75;49.16;100115.28;7341308;19;20038;-63
2023/04/18 03:57:07;;;;;;;30.85;13.38;;;;;;;11.79;49.54;100107.91;7338148;19;20018;-64
2023/04/18 03:59:33;;;;;;;20.67;11.48;;;;;;;11.80;48.94;100113.16;7339011;19;20078;-64
2023/04/18 04:01:58;;;;;;;24.27;11.57;;;;;;;11.82;48.30;100115.72;7338813;19;20115;-63
2023/04/18 04:04:23;;;;;;;30.73;11.93;;;;;;;11.83;48.49;100120.09;7345995;19;20014;-64
2023/04/18 04:06:49;;;;;;;22.20;12.77;;;;;;;11.80;49.23;100120.31;7353118;19;20463;-64
2023/04/18 04:09:14;;;;;;;29.40;13.88;;;;;;;11.78;49.52;100117.75;7354166;19;20132;-64
2023/04/18 04:11:39;;;;;;;31.40;13.18;;;;;;;11.74;50.01;100112.69;7356381;19;20014;-66
2023/04/18 04:14:06;;;;;;;29.67;13.80;;;;;;;11.79;49.75;100113.25;7353056;19;20457;-63
2023/04/18 04:16:36;;;;;;;31.23;12.38;;;;;;;11.80;49.61;100113.16;7351653;19;20018;-65
2023/04/18 04:19:03;;;;;;;28.98;13.23;;;;;;;11.87;49.48;100116.25;7353348;19;20061;-65
2023/04/18 04:21:35;;;;;;;18.15;12.02;;;;;;;11.94;48.94;100109.53;7354698;19;20776;-68
2023/04/18 04:24:00;;;;;;;36.85;13.18;;;;;;;11.99;49.64;100118.06;7354736;19;20025;-63
2023/04/18 04:26:33;;;;;;;30.95;12.95;;;;;;;12.05;48.77;100119.47;7354483;19;20102;-63
2023/04/18 04:29:08;;;;;;;28.25;13.23;;;;;;;12.13;48.27;100115.28;7353903;19;20465;-65
2023/04/18 04:31:34;;;;;;;18.63;10.45;;;;;;;12.16;48.13;100115.09;7354523;19;20341;-65
2023/04/18 04:33:59;;;;;;;25.90;12.48;;;;;;;12.24;47.61;100109.19;7357533;19;20011;-67
2023/04/18 04:36:26;;;;;;;32.60;12.98;;;;;;;12.30;47.38;100114.13;7356072;19;20202;-64
2023/04/18 04:38:52;;;;;;;20.52;11.98;;;;;;;12.35;47.54;100117.28;7356845;19;20029;-65
2023/04/18 04:41:24;;;;;;;27.20;13.98;;;;;;;12.40;47.96;100115.16;7355833;19;20086;-65
2023/04/18 04:43:50;;;;;;;26.95;12.35;;;;;;;12.43;47.55;100120.28;7353412;19;20014;-64
2023/04/18 04:46:18;;;;;;;23.25;13.07;;;;;;;12.47;47.61;100116.41;7356399;19;20461;-69
2023/04/18 04:48:45;;;;;;;30.70;13.13;;;;;;;12.51;47.01;100120.59;7354217;19;20014;-65
2023/04/18 04:51:10;;;;;;;35.40;13.88;;;;;;;12.57;47.31;100122.81;7356276;19;20022;-65
2023/04/18 04:53:34;;;;;;;37.25;13.63;;;;;;;12.59;46.94;100123.56;7358993;19;20473;-64
2023/04/18 04:55:59;;;;;;;29.63;13.35;;;;;;;12.61;47.40;100121.63;7362389;19;20007;-65
2023/04/18 04:58:25;;;;;;;25.48;13.30;;;;;;;12.65;47.06;100120.44;7356971;19;20011;-65
2023/04/18 05:00:58;;;;;;;30.88;14.00;;;;;;;12.70;46.93;100118.28;7356474;19;20010;-65
2023/04/18 05:03:23;;;;;;;32.75;13.98;;;;;;;12.73;46.80;100118.06;7354747;19;20015;-66
2023/04/18 05:05:48;;;;;;;29.23;13.27;;;;;;;12.75;46.67;100119.78;7353136;19;20002;-65
2023/04/18 05:08:12;;;;;;;31.52;12.73;;;;;;;12.79;46.68;100118.56;7353159;19;20062;-65
2023/04/18 05:10:37;;;;;;;44.72;14.40;;;;;;;12.84;46.38;100117.28;7351142;19;20022;-65
2023/04/18 05:13:02;;;;;;;34.78;15.18;;;;;;;12.92;46.52;100130.09;7355510;19;20010;-64
2023/04/18 05:15:27;;;;;;;49.60;21.75;;;;;;;12.99;45.77;100115.28;7350831;19;20018;-64
2023/04/18 05:17:52;;;;;;;64.90;28.10;;;;;;;13.06;45.20;100121.91;7348754;19;20015;-65
2023/04/18 05:20:17;;;;;;;60.55;24.58;;;;;;;13.07;45.09;100120.94;7346488;19;20027;-65
2023/04/18 05:22:41;;;;;;;59.60;24.13;;;;;;;13.14;45.32;100116.88;7344668;19;20027;-65
2023/04/18 05:25:07;;;;;;;54.13;23.05;;;;;;;13.22;45.17;100124.31;7349239;19;20022;-64
2023/04/18 05:27:31;;;;;;;47.20;21.05;;;;;;;13.29;45.09;100122.91;7346971;19;20014;-65
2023/04/18 05:29:56;;;;;;;54.58;22.20;;;;;;;13.36;44.58;100129.50;7345073;19;20039;-64
2023/04/18 05:32:21;;;;;;;46.67;20.95;;;;;;;13.41;44.89;100122.84;7346623;19;20347;-65
2023/04/18 05:34:46;;;;;;;53.42;23.25;;;;;;;13.48;44.53;100125.03;7346077;19;20097;-65
2023/04/18 05:37:10;;;;;;;55.35;24.13;;;;;;;13.56;44.04;100119.94;7343701;19;20461;-65
2023/04/18 05:39:35;;;;;;;46.80;21.48;;;;;;;13.64;44.06;100125.59;7346252;19;20011;-65
2023/04/18 05:42:01;;;;;;;42.70;20.42;;;;;;;13.73;43.51;100120.38;7346209;19;20006;-65
2023/04/18 05:44:25;;;;;;;39.47;19.05;;;;;;;13.80;43.20;100126.97;7346821;19;20022;-64
2023/04/18 05:46:50;;;;;;;42.72;18.65;;;;;;;13.88;43.39;100122.88;7348192;19;20022;-65
2023/04/18 05:49:15;;;;;;;39.55;18.52;;;;;;;13.87;43.57;100113.97;7345846;19;20102;-64
2023/04/18 05:51:40;;;;;;;38.78;18.33;;;;;;;13.85;43.62;100126.63;7344237;19;20023;-64
2023/04/18 05:54:04;;;;;;;41.38;19.10;;;;;;;13.79;43.57;100125.25;7345808;19;20021;-65
2023/04/18 05:56:29;;;;;;;34.83;17.05;;;;;;;13.74;43.52;100123.91;7344930;19;20013;-64
2023/04/18 05:58:54;;;;;;;29.75;16.63;;;;;;;13.73;43.53;100123.06;7345213;19;20469;-65
2023/04/18 06:01:20;;;;;;;34.65;16.85;;;;;;;13.77;43.58;100127.19;7347498;19;20341;-64
2023/04/18 06:03:45;;;;;;;32.05;15.98;;;;;;;13.85;43.69;100126.63;7349446;19;20022;-64
2023/04/18 06:06:10;;;;;;;33.03;16.00;;;;;;;13.95;43.66;100122.25;7345848;19;20014;-66
2023/04/18 06:08:35;;;;;;;33.58;16.23;;;;;;;13.98;42.77;100116.66;7347285;19;20472;-64
2023/04/18 06:11:00;;;;;;;29.27;15.52;;;;;;;14.06;43.01;100116.91;7345131;19;20038;-64
2023/04/18 06:13:24;;;;;;;37.10;15.10;;;;;;;14.17;42.88;100116.06;7345165;19;20007;-65
2023/04/18 06:15:49;;;;;;;29.70;15.05;;;;;;;14.29;42.58;100117.78;7348550;19;20357;-66
2023/04/18 06:18:14;;;;;;;29.27;14.90;;;;;;;14.44;42.20;100121.13;7347236;19;20070;-65
2023/04/18 06:20:38;;;;;;;41.97;15.15;;;;;;;14.57;41.94;100127.19;7346880;19;20026;-65
2023/04/18 06:23:03;;;;;;;34.90;16.88;;;;;;;14.71;41.71;100112.66;7344891;19;20014;-64
2023/04/18 06:25:28;;;;;;;30.15;14.30;;;;;;;14.88;41.47;100114.84;7344151;19;20018;-64
2023/04/18 06:27:52;;;;;;;28.83;15.05;;;;;;;15.07;41.04;100116.84;7345964;19;20328;-64
2023/04/18 06:30:20;;;;;;;34.95;17.23;;;;;;;15.35;40.64;100120.81;7349799;19;20014;-64
2023/04/18 06:32:45;;;;;;;32.90;15.13;;;;;;;15.66;40.30;100122.63;7346378;19;20031;-64
2023/04/18 06:35:10;;;;;;;27.05;14.43;;;;;;;16.05;39.69;100126.41;7343868;19;20018;-64
2023/04/18 06:37:34;;;;;;;26.70;15.10;;;;;;;16.43;39.01;100111.47;7339905;19;20010;-64
2023/04/18 06:39:59;;;;;;;34.47;15.10;;;;;;;16.67;38.21;100109.31;7342498;19;20006;-65
2023/04/18 06:42:24;;;;;;;34.47;16.02;;;;;;;16.81;37.82;100106.25;7343024;19;20007;-64
2023/04/18 06:44:49;;;;;;;43.42;15.65;;;;;;;17.11;37.35;100109.84;7341594;19;20083;-64
2023/04/18 06:47:14;;;;;;;43.28;15.63;;;;;;;18.63;35.77;100104.34;7343883;19;20448;-64
2023/04/18 06:49:38;;;;;;;27.98;14.20;;;;;;;20.28;32.89;100104.72;7345770;19;20481;-64
2023/04/18 06:52:03;;;;;;;34.70;15.02;;;;;;;22.06;30.69;100099.75;7344900;19;20010;-64
2023/04/18 06:54:28;;;;;;;27.42;13.82;;;;;;;23.44;29.58;100096.47;7347243;19;20369;-66
2023/04/18 06:56:52;;;;;;;32.47;14.63;;;;;;;23.82;28.72;100099.22;7342012;19;20142;-65
2023/04/18 06:59:18;;;;;;;25.60;12.82;;;;;;;23.50;28.73;100103.06;7345582;19;20439;-65
2023/04/18 07:01:42;;;;;;;29.38;15.07;;;;;;;23.03;28.84;100097.72;7344505;19;20033;-64
2023/04/18 07:04:07;;;;;;;33.78;15.75;;;;;;;22.73;28.63;100093.94;7344094;19;20010;-65
2023/04/18 07:06:33;;;;;;;20.83;11.82;;;;;;;22.88;28.46;100092.22;7345376;19;20006;-65
2023/04/18 07:09:00;;;;;;;23.85;11.55;;;;;;;23.73;27.45;100089.44;7342975;19;20038;-65
2023/04/18 07:11:25;;;;;;;26.23;13.38;;;;;;;24.96;25.79;100093.41;7338571;19;20473;-65
2023/04/18 07:13:50;;;;;;;27.63;14.23;;;;;;;26.52;24.89;100093.41;7341554;19;20010;-64
2023/04/18 07:16:15;;;;;;;24.77;14.05;;;;;;;27.94;23.53;100088.78;7342970;19;20038;-66
2023/04/18 07:18:39;;;;;;;28.88;13.77;;;;;;;28.58;22.56;100086.19;7343410;19;20018;-63
2023/04/18 07:21:07;;;;;;;21.88;13.93;;;;;;;29.05;22.15;100095.09;7346854;19;20121;-65
2023/04/18 07:23:32;;;;;;;20.27;11.95;;;;;;;29.00;21.85;100095.78;7345471;19;20358;-65
2023/04/18 07:25:58;;;;;;;26.23;12.15;;;;;;;28.00;22.59;100087.94;7344603;19;20420;-64
2023/04/18 07:28:23;;;;;;;18.83;13.35;;;;;;;26.63;23.56;100092.84;7341481;19;20010;-65
2023/04/18 07:30:47;;;;;;;24.42;12.75;;;;;;;25.33;24.86;100100.56;7341982;19;20025;-67
2023/04/18 07:33:12;;;;;;;17.20;12.63;;;;;;;24.14;25.91;100098.94;7342394;19;20069;-66
2023/04/18 07:35:39;;;;;;;24.42;12.73;;;;;;;23.11;27.33;100103.16;7341967;19;20014;-66
2023/04/18 07:38:04;;;;;;;17.95;11.70;;;;;;;22.41;27.67;100103.94;7339185;19;20098;-64
2023/04/18 07:40:28;;;;;;;35.10;13.00;;;;;;;21.86;28.64;100095.69;7340351;19;20022;-65
2023/04/18 07:42:53;;;;;;;25.08;12.23;;;;;;;21.34;29.37;100101.44;7342088;19;20010;-65
2023/04/18 07:45:18;;;;;;;25.45;12.30;;;;;;;20.85;30.08;100100.44;7343121;19;20136;-65
2023/04/18 07:47:42;;;;;;;20.63;12.05;;;;;;;20.39;30.47;100099.06;7341888;19;20338;-63
2023/04/18 07:50:09;;;;;;;19.60;11.93;;;;;;;20.01;30.83;100103.03;7341851;19;20018;-65
2023/04/18 07:52:33;;;;;;;22.98;11.75;;;;;;;19.73;31.31;100098.78;7341820;19;20022;-64
2023/04/18 07:54:58;;;;;;;19.35;11.00;;;;;;;19.49;31.87;100102.13;7340955;19;20054;-65
2023/04/18 07:57:22;;;;;;;21.63;10.82;;;;;;;19.45;32.31;100106.09;7338293;19;20013;-66
2023/04/18 07:59:47;;;;;;;18.30;9.98;;;;;;;19.48;32.13;100113.91;7339653;19;20022;-65
2023/04/18 08:02:12;;;;;;;19.70;11.20;;;;;;;19.56;31.96;100093.22;7341942;19;20006;-65
2023/04/18 08:04:37;;;;;;;22.77;10.75;;;;;;;19.71;32.13;100104.34;7341034;19;20029;-66
2023/04/18 08:07:01;;;;;;;16.40;10.02;;;;;;;19.85;31.48;100101.06;7344426;19;20082;-65
2023/04/18 08:09:26;;;;;;;16.10;10.85;;;;;;;20.14;31.50;100097.19;7340721;19;20014;-66
2023/04/18 08:11:53;;;;;;;23.83;11.73;;;;;;;20.55;30.91;100093.72;7339156;19;20018;-64
2023/04/18 08:14:18;;;;;;;23.65;11.40;;;;;;;20.83;30.46;100093.50;7339220;19;20031;-65
2023/04/18 08:16:43;;;;;;;20.95;11.27;;;;;;;20.90;30.16;100092.66;7340678;19;20107;-67
2023/04/18 08:19:07;;;;;;;22.38;10.02;;;;;;;20.84;30.59;100097.91;7340916;19;20027;-65
2023/04/18 08:21:32;;;;;;;17.00;10.57;;;;;;;20.62;30.69;100091.22;7341110;19;20006;-64
2023/04/18 08:23:57;;;;;;;20.38;10.93;;;;;;;20.33;31.20;100093.41;7344828;19;20019;-65
2023/04/18 08:26:22;;;;;;;18.02;10.95;;;;;;;20.00;31.42;100095.91;7344934;19;20466;-65
2023/04/18 08:28:46;;;;;;;17.73;10.77;;;;;;;19.59;31.78;100089.34;7348097;19;20563;-66
2023/04/18 08:31:12;;;;;;;17.20;10.82;;;;;;;19.22;32.70;100095.75;7346181;19;20026;-65
2023/04/18 08:33:37;;;;;;;19.17;11.27;;;;;;;18.81;32.51;100088.22;7344356;19;20011;-66
2023/04/18 08:36:02;;;;;;;21.52;11.23;;;;;;;18.43;33.04;100087.38;7339084;19;20023;-64
2023/04/18 08:38:26;;;;;;;16.35;10.50;;;;;;;18.18;33.91;100090.72;7341223;19;20480;-66
2023/04/18 08:40:51;;;;;;;24.95;11.93;;;;;;;17.93;34.23;100091.41;7342206;19;20015;-65
2023/04/18 08:43:16;;;;;;;25.92;11.50;;;;;;;17.71;34.32;100101.50;7341006;19;20037;-64
2023/04/18 08:45:42;;;;;;;16.35;11.38;;;;;;;17.61;34.84;100100.59;7341106;19;20014;-66
2023/04/18 08:48:10;;;;;;;17.50;12.15;;;;;;;17.57;34.53;100092.97;7341569;19;20038;-65
2023/04/18 08:50:35;;;;;;;20.90;11.82;;;;;;;17.61;34.74;100089.81;7347491;19;20006;-66
2023/04/18 08:53:00;;;;;;;18.48;11.05;;;;;;;17.71;33.93;100096.13;7346966;19;20025;-65
2023/04/18 08:55:25;;;;;;;23.10;11.98;;;;;;;17.96;33.82;100091.06;7344929;19;20015;-63
2023/04/18 08:57:52;;;;;;;15.82;11.02;;;;;;;18.09;33.78;100081.69;7344400;19;20011;-65
2023/04/18 09:00:17;;;;;;;22.55;12.27;;;;;;;18.24;33.52;100090.16;7345052;19;20011;-66
2023/04/18 09:02:43;;;;;;;27.90;11.93;;;;;;;18.27;33.90;100084.47;7346390;19;20031;-65
2023/04/18 09:05:20;;;;;;;24.42;12.05;;;;;;;18.37;33.82;100090.69;7344987;19;20361;-65
2023/04/18 09:07:49;;;;;;;26.42;12.50;;;;;;;18.25;33.91;100088.31;7345641;19;20037;-64
2023/04/18 09:10:27;;;;;;;30.63;13.10;;;;;;;18.36;34.17;100088.97;7349192;19;20018;-64
2023/04/18 09:12:52;;;;;;;26.90;12.35;;;;;;;18.10;34.44;100085.22;7347197;19;20011;-64
2023/04/18 09:15:22;;;;;;;22.45;12.18;;;;;;;18.00;34.47;100095.19;7347306;19;20021;-65
2023/04/18 09:17:49;;;;;;;18.20;12.63;;;;;;;17.70;35.02;100102.50;7344056;19;20021;-65
2023/04/18 09:20:33;;;;;;;24.27;12.45;;;;;;;17.73;34.78;100096.81;7348262;19;20050;-64
2023/04/18 09:22:59;;;;;;;25.93;13.20;;;;;;;17.46;35.12;100090.44;7352672;19;20062;-63
2023/04/18 09:25:27;;;;;;;20.02;11.60;;;;;;;17.38;35.62;100093.84;7345913;19;20034;-64
2023/04/18 09:27:52;;;;;;;21.67;12.02;;;;;;;17.26;35.85;100101.22;7347846;19;20010;-63
2023/04/18 09:30:38;;;;;;;20.15;12.20;;;;;;;17.37;35.76;100097.53;7345762;19;20094;-63
2023/04/18 09:33:06;;;;;;;21.70;13.32;;;;;;;17.18;35.71;100090.25;7347193;19;20018;-64
2023/04/18 09:35:31;;;;;;;21.05;12.38;;;;;;;17.10;35.76;100100.91;7345228;19;20027;-65
2023/04/18 09:37:56;;;;;;;29.48;12.20;;;;;;;17.04;35.88;100101.47;7342465;19;20018;-65
2023/04/18 09:40:21;;;;;;;24.98;13.25;;;;;;;16.94;36.26;100101.44;7343669;19;20014;-64
2023/04/18 09:42:47;;;;;;;29.55;13.00;;;;;;;16.84;36.64;100099.72;7345067;19;20018;-64
2023/04/18 09:45:15;;;;;;;19.42;11.70;;;;;;;16.81;36.58;100098.16;7347605;19;20031;-65
2023/04/18 09:47:39;;;;;;;33.45;13.50;;;;;;;16.85;36.87;100098.72;7347409;19;20022;-64
2023/04/18 09:50:06;;;;;;;29.15;12.88;;;;;;;16.97;36.74;100098.47;7348547;19;20017;-64
2023/04/18 09:52:37;;;;;;;20.95;12.13;;;;;;;17.62;36.31;100099.63;7349827;19;20014;-65
2023/04/18 09:55:04;;;;;;;18.33;12.23;;;;;;;18.80;34.40;100094.63;7349201;19;20027;-66
2023/04/18 09:57:31;;;;;;;22.75;12.73;;;;;;;19.34;33.46;100093.66;7345907;19;20025;-64
2023/04/18 10:00:16;;;;;;;23.38;12.98;;;;;;;19.66;33.38;100093.13;7349469;19;20540;-65
2023/04/18 10:02:57;;;;;;;23.17;13.30;;;;;;;19.58;33.15;100095.75;7344836;19;20019;-64
2023/04/18 10:05:30;;;;;;;27.65;13.10;;;;;;;19.73;33.47;100099.63;7351700;19;20082;-65
2023/04/18 10:07:55;;;;;;;25.55;12.45;;;;;;;19.81;33.13;100094.25;7348727;19;20017;-64
2023/04/18 10:10:19;;;;;;;27.98;12.32;;;;;;;20.23;33.31;100094.38;7348688;19;20011;-64
2023/04/18 10:12:49;;;;;;;28.98;13.95;;;;;;;20.93;32.55;100095.03;7349266;19;20014;-65
2023/04/18 10:15:15;;;;;;;38.67;15.25;;;;;;;21.51;31.59;100110.44;7349224;19;20015;-65
2023/04/18 10:17:42;;;;;;;26.50;13.38;;;;;;;21.62;31.15;100103.84;7350771;19;20018;-65
2023/04/18 10:20:07;;;;;;;21.90;14.45;;;;;;;21.33;31.10;100096.19;7352666;19;20035;-70
2023/04/18 10:22:32;;;;;;;27.52;13.82;;;;;;;20.90;31.46;100102.66;7350816;19;20014;-66
2023/04/18 10:24:57;;;;;;;23.80;14.63;;;;;;;20.31;32.16;100097.09;7351609;19;20006;-64
2023/04/18 10:27:46;;;;;;;24.20;14.82;;;;;;;20.04;32.71;100104.56;7352436;19;20039;-64
2023/04/18 10:30:11;;;;;;;24.90;14.27;;;;;;;19.20;33.63;100107.69;7350714;19;20090;-65
2023/04/18 10:32:36;;;;;;;29.77;15.50;;;;;;;18.66;34.22;100104.06;7351062;19;20066;-64
2023/04/18 10:35:01;;;;;;;33.88;16.05;;;;;;;18.21;34.99;100103.94;7351135;19;20011;-66
2023/04/18 10:37:34;;;;;;;37.10;15.45;;;;;;;17.87;35.23;100110.84;7347858;19;20082;-64
2023/04/18 10:40:04;;;;;;;28.55;14.10;;;;;;;17.49;35.98;100112.56;7349629;19;20082;-64
2023/04/18 10:42:51;;;;;;;22.17;13.77;;;;;;;17.47;35.68;100109.16;7352493;19;20010;-66
2023/04/18 10:45:20;;;;;;;25.95;14.43;;;;;;;17.05;36.24;100103.16;7350518;19;20026;-66
2023/04/18 10:47:45;;;;;;;27.27;14.77;;;;;;;16.86;36.26;100100.44;7346627;19;20010;-64
2023/04/18 10:50:10;;;;;;;24.05;13.43;;;;;;;16.74;36.26;100099.69;7345242;19;20033;-65
2023/04/18 10:52:35;;;;;;;25.23;13.25;;;;;;;16.57;36.41;100100.34;7347236;19;20074;-65
2023/04/18 10:55:18;;;;;;;27.15;14.20;;;;;;;16.54;36.45;100103.28;7347874;19;20011;-64
2023/04/18 10:57:48;;;;;;;28.92;14.02;;;;;;;16.50;36.73;100110.78;7352846;19;20007;-65
2023/04/18 11:00:16;;;;;;;24.27;13.68;;;;;;;16.55;36.87;100102.31;7353293;19;20015;-66
2023/04/18 11:02:48;;;;;;;21.00;13.85;;;;;;;16.66;37.03;100113.84;7354163;19;20030;-64
2023/04/18 11:05:18;;;;;;;23.05;15.07;;;;;;;16.67;36.73;100114.72;7349166;19;20074;-65
2023/04/18 11:07:45;;;;;;;25.85;14.93;;;;;;;16.63;36.51;100106.03;7346864;19;20029;-65